Terminal Aerodrome Forecast
Issued by NWS Melbourne, FL

Current Version | Previous Version | Text Only | Print | Product List | Glossary On
Versions: 1 2 3 4 5 6 7 8 9 10 11 12 13
589
FTUS42 KMLB 171126
TAFMLB
TAF
KMLB 171126Z 1712/1812 VRB03KT P6SM SCT250
     FM171600 12009KT P6SM SCT035 BKN250
     FM180000 13005KT P6SM FEW035 BKN250
      TEMPO 1809/1812 3SM BR SCT004=

USA.gov is the U.S. government's official web portal to all federal, state and local government web resources and services.